createdAt,value
2017-05-03T00:00:07.855Z,994.27
2017-05-03T00:01:07.879Z,994.28
2017-05-03T00:02:07.909Z,994.29
2017-05-03T00:03:07.934Z,994.33
2017-05-03T00:04:07.962Z,994.27
2017-05-03T00:05:07.987Z,994.25
2017-05-03T00:06:08.011Z,994.25
2017-05-03T00:07:08.041Z,994.28
2017-05-03T00:08:08.072Z,994.26
2017-05-03T00:09:08.094Z,994.23
2017-05-03T00:10:08.123Z,994.2
2017-05-03T00:11:08.148Z,994.27
2017-05-03T00:12:08.176Z,994.18
2017-05-03T00:13:08.206Z,994.22
2017-05-03T00:14:08.253Z,994.2
2017-05-03T00:15:08.259Z,994.21
2017-05-03T00:16:08.288Z,994.26
2017-05-03T00:17:08.313Z,994.26
2017-05-03T00:18:08.340Z,994.25
2017-05-03T00:19:08.371Z,994.27
2017-05-03T00:20:08.396Z,994.23
2017-05-03T00:21:08.419Z,994.26
2017-05-03T00:22:08.449Z,994.25
2017-05-03T00:23:08.472Z,994.22
2017-05-03T00:24:08.502Z,994.22
2017-05-03T00:25:08.531Z,994.19
2017-05-03T00:26:08.556Z,994.23
2017-05-03T00:27:08.580Z,994.17
2017-05-03T00:28:08.606Z,994.18
2017-05-03T00:29:08.637Z,994.2
2017-05-03T00:30:08.663Z,994.17
2017-05-03T00:31:08.692Z,994.17
2017-05-03T00:32:08.716Z,994.18
2017-05-03T00:33:08.745Z,994.21
2017-05-03T00:34:08.769Z,994.17
2017-05-03T00:35:08.798Z,994.21
2017-05-03T00:36:08.827Z,994.18
2017-05-03T00:37:08.850Z,994.19
2017-05-03T00:38:08.880Z,994.18
2017-05-03T00:39:08.905Z,994.17
2017-05-03T00:40:08.934Z,994.19
2017-05-03T00:41:08.960Z,994.18
2017-05-03T00:42:08.987Z,994.18
2017-05-03T00:43:09.011Z,994.2
2017-05-03T00:44:09.044Z,994.17
2017-05-03T00:45:09.066Z,994.2
2017-05-03T00:46:09.095Z,994.19
2017-05-03T00:47:09.124Z,994.18
2017-05-03T00:48:09.147Z,994.17
2017-05-03T00:49:09.178Z,994.16
2017-05-03T00:50:09.202Z,994.18
2017-05-03T00:51:09.232Z,994.15
2017-05-03T00:52:09.256Z,994.14
2017-05-03T00:53:09.284Z,994.12
2017-05-03T00:54:09.305Z,994.12
2017-05-03T00:55:09.337Z,994.16
2017-05-03T00:56:09.363Z,994.1
2017-05-03T00:57:09.391Z,994.13
2017-05-03T00:58:09.426Z,994.1
2017-05-03T00:59:09.440Z,994.11
2017-05-03T01:00:09.470Z,994.07
2017-05-03T01:01:09.498Z,994.11
2017-05-03T01:02:09.523Z,994.11
2017-05-03T01:03:09.552Z,994.08
2017-05-03T01:04:09.580Z,994.09
2017-05-03T01:05:09.606Z,994.1
2017-05-03T01:06:09.634Z,994.11
2017-05-03T01:07:09.658Z,994.05
2017-05-03T01:08:09.688Z,994.08
2017-05-03T01:09:09.711Z,994.06
2017-05-03T01:10:09.745Z,994.03
2017-05-03T01:11:09.766Z,994.02
2017-05-03T01:12:09.793Z,994.07
2017-05-03T01:13:09.823Z,994.07
2017-05-03T01:14:09.848Z,994.05
2017-05-03T01:15:09.880Z,994
2017-05-03T01:16:09.900Z,994
2017-05-03T01:17:09.929Z,993.99
2017-05-03T01:18:10.206Z,993.98
2017-05-03T01:19:09.985Z,993.96
2017-05-03T01:20:10.007Z,993.94
2017-05-03T01:21:10.033Z,993.95
2017-05-03T01:22:10.062Z,993.92
2017-05-03T01:23:10.338Z,993.91
2017-05-03T01:24:10.115Z,993.95
2017-05-03T01:25:10.143Z,993.94
2017-05-03T01:26:10.169Z,993.96
2017-05-03T01:27:10.197Z,993.93
2017-05-03T01:28:10.473Z,993.95
2017-05-03T01:29:10.250Z,993.96
2017-05-03T01:30:10.275Z,993.94
2017-05-03T01:31:10.305Z,993.96
2017-05-03T01:32:10.334Z,993.96
2017-05-03T01:33:10.608Z,993.98
2017-05-03T01:34:10.387Z,993.95
2017-05-03T01:35:10.412Z,993.98
2017-05-03T01:36:10.439Z,994.04
2017-05-03T01:37:10.467Z,994.01
2017-05-03T01:38:10.494Z,994.02
2017-05-03T01:39:10.519Z,994.06
2017-05-03T01:40:10.547Z,994.05
2017-05-03T01:41:10.567Z,994.05
2017-05-03T01:42:10.601Z,994.06
2017-05-03T01:43:10.626Z,994.06
2017-05-03T01:44:10.650Z,994.08
2017-05-03T01:45:10.679Z,994.09
2017-05-03T01:46:10.705Z,994.08
2017-05-03T01:47:10.733Z,994.05
2017-05-03T01:48:10.762Z,994.02
2017-05-03T01:49:10.790Z,994.01
2017-05-03T01:50:10.813Z,994
2017-05-03T01:51:10.839Z,994.03
2017-05-03T01:52:10.867Z,994
2017-05-03T01:53:10.897Z,993.98
2017-05-03T01:54:10.922Z,994.03
2017-05-03T01:55:10.944Z,993.98
2017-05-03T01:56:10.980Z,993.99
2017-05-03T01:57:11.004Z,994
2017-05-03T01:58:11.029Z,993.99
2017-05-03T01:59:11.055Z,993.96
2017-05-03T02:00:11.083Z,993.96
2017-05-03T02:01:11.112Z,994.01
2017-05-03T02:02:11.135Z,993.95
2017-05-03T02:03:11.165Z,994.02
2017-05-03T02:04:11.189Z,994.05
2017-05-03T02:05:11.218Z,994.02
2017-05-03T02:06:11.243Z,994
2017-05-03T02:07:11.271Z,993.98
2017-05-03T02:08:11.297Z,994.01
2017-05-03T02:09:11.320Z,993.96
2017-05-03T02:10:11.350Z,993.98
2017-05-03T02:11:11.379Z,993.95
2017-05-03T02:12:11.403Z,993.98
2017-05-03T02:13:11.430Z,993.97
2017-05-03T02:14:11.456Z,993.96
2017-05-03T02:15:11.483Z,993.97
2017-05-03T02:16:11.510Z,993.93
2017-05-03T02:17:11.534Z,993.99
2017-05-03T02:18:11.562Z,993.99
2017-05-03T02:19:11.592Z,994
2017-05-03T02:20:11.616Z,993.98
2017-05-03T02:21:11.642Z,994.04
2017-05-03T02:22:11.669Z,994.05
2017-05-03T02:23:11.696Z,994.04
2017-05-03T02:24:11.724Z,994.07
2017-05-03T02:25:11.749Z,994.05
2017-05-03T02:26:11.778Z,994.04
2017-05-03T02:27:11.802Z,994.08
2017-05-03T02:28:11.831Z,994.07
2017-05-03T02:29:11.856Z,994.07
2017-05-03T02:30:11.886Z,994.05
2017-05-03T02:31:11.910Z,994.06
2017-05-03T02:32:11.938Z,994.04
2017-05-03T02:33:11.962Z,994.04
2017-05-03T02:34:11.991Z,994.06
2017-05-03T02:35:12.017Z,994.07
2017-05-03T02:36:12.046Z,994.05
2017-05-03T02:37:12.071Z,994.06
2017-05-03T02:38:12.094Z,994.1
2017-05-03T02:39:12.124Z,994.09
2017-05-03T02:40:12.148Z,994.11
2017-05-03T02:41:12.177Z,994.1
2017-05-03T02:42:12.203Z,994.14
2017-05-03T02:43:12.229Z,994.09
2017-05-03T02:44:12.257Z,994.14
2017-05-03T02:45:12.281Z,994.12
2017-05-03T02:46:12.308Z,994.14
2017-05-03T02:47:12.339Z,994.12
2017-05-03T02:48:12.362Z,994.15
2017-05-03T02:49:12.391Z,994.13
2017-05-03T02:50:12.417Z,994.15
2017-05-03T02:51:12.441Z,994.15
2017-05-03T02:52:12.473Z,994.11
2017-05-03T02:53:12.491Z,994.1
2017-05-03T02:54:12.523Z,994.11
2017-05-03T02:55:12.551Z,994.07
2017-05-03T02:56:12.577Z,994.12
2017-05-03T02:57:12.602Z,994.09
2017-05-03T02:58:12.630Z,994.12
2017-05-03T02:59:12.655Z,994.12
2017-05-03T03:00:12.683Z,994.14
2017-05-03T03:01:12.708Z,994.17
2017-05-03T03:02:12.737Z,994.12
2017-05-03T03:03:12.762Z,994.14
2017-05-03T03:04:12.791Z,994.08
2017-05-03T03:05:12.818Z,994.09
2017-05-03T03:06:12.839Z,994.09
2017-05-03T03:07:12.867Z,994.07
2017-05-03T03:08:12.894Z,994.09
2017-05-03T03:09:12.921Z,994.1
2017-05-03T03:10:12.951Z,994.12
2017-05-03T03:11:12.975Z,994.11
2017-05-03T03:12:13.028Z,994.13
2017-05-03T03:13:13.028Z,994.15
2017-05-03T03:14:13.311Z,994.13
2017-05-03T03:15:13.083Z,994.16
2017-05-03T03:16:13.108Z,994.15
2017-05-03T03:17:13.130Z,994.16
2017-05-03T03:18:13.161Z,994.19
2017-05-03T03:19:13.437Z,994.18
2017-05-03T03:20:13.215Z,994.16
2017-05-03T03:21:13.245Z,994.18
2017-05-03T03:22:13.269Z,994.15
2017-05-03T03:23:13.297Z,994.16
2017-05-03T03:24:13.572Z,994.17
2017-05-03T03:25:13.346Z,994.17
2017-05-03T03:26:13.375Z,994.15
2017-05-03T03:27:13.401Z,994.14
2017-05-03T03:28:13.429Z,994.17
2017-05-03T03:29:13.452Z,994.2
2017-05-03T03:30:13.481Z,994.2
2017-05-03T03:31:13.502Z,994.17
2017-05-03T03:32:13.536Z,994.2
2017-05-03T03:33:13.560Z,994.2
2017-05-03T03:34:13.590Z,994.2
2017-05-03T03:35:13.614Z,994.2
2017-05-03T03:36:13.642Z,994.2
2017-05-03T03:37:13.663Z,994.23
2017-05-03T03:38:13.698Z,994.28
2017-05-03T03:39:13.721Z,994.24
2017-05-03T03:40:13.743Z,994.25
2017-05-03T03:41:13.770Z,994.29
2017-05-03T03:42:13.799Z,994.29
2017-05-03T03:43:13.827Z,994.28
2017-05-03T03:44:13.852Z,994.27
2017-05-03T03:45:13.880Z,994.27
2017-05-03T03:46:13.902Z,994.27
2017-05-03T03:47:13.934Z,994.28
2017-05-03T03:48:13.960Z,994.25
2017-05-03T03:49:13.984Z,994.31
2017-05-03T03:50:14.012Z,994.28
2017-05-03T03:51:14.039Z,994.28
2017-05-03T03:52:14.064Z,994.27
2017-05-03T03:53:14.092Z,994.3
2017-05-03T03:54:14.121Z,994.27
2017-05-03T03:55:14.146Z,994.3
2017-05-03T03:56:14.165Z,994.28
2017-05-03T03:57:14.199Z,994.3
2017-05-03T03:58:14.223Z,994.3
2017-05-03T03:59:14.251Z,994.33
2017-05-03T04:00:14.277Z,994.33
2017-05-03T04:01:14.304Z,994.31
2017-05-03T04:02:14.330Z,994.32
2017-05-03T04:03:14.356Z,994.3
2017-05-03T04:04:14.384Z,994.33
2017-05-03T04:05:14.409Z,994.33
2017-05-03T04:06:14.439Z,994.3
2017-05-03T04:07:14.463Z,994.26
2017-05-03T04:08:14.487Z,994.29
2017-05-03T04:09:14.514Z,994.29
2017-05-03T04:10:14.540Z,994.28
2017-05-03T04:11:14.569Z,994.29
2017-05-03T04:12:14.593Z,994.3
2017-05-03T04:13:14.622Z,994.27
2017-05-03T04:14:14.648Z,994.31
2017-05-03T04:15:14.675Z,994.28
2017-05-03T04:16:14.700Z,994.3
2017-05-03T04:17:14.726Z,994.31
2017-05-03T04:18:14.755Z,994.3
2017-05-03T04:19:14.779Z,994.27
2017-05-03T04:20:14.807Z,994.34
2017-05-03T04:21:14.832Z,994.35
2017-05-03T04:22:14.861Z,994.32
2017-05-03T04:23:14.885Z,994.33
2017-05-03T04:24:14.915Z,994.36
2017-05-03T04:25:14.940Z,994.36
2017-05-03T04:26:14.965Z,994.31
2017-05-03T04:27:14.993Z,994.29
2017-05-03T04:28:15.026Z,994.33
2017-05-03T04:29:15.056Z,994.32
2017-05-03T04:30:15.078Z,994.31
2017-05-03T04:31:15.103Z,994.31
2017-05-03T04:32:15.134Z,994.33
2017-05-03T04:33:15.153Z,994.33
2017-05-03T04:34:15.183Z,994.34
2017-05-03T04:35:15.215Z,994.36
2017-05-03T04:36:15.233Z,994.37
2017-05-03T04:37:15.252Z,994.38
2017-05-03T04:38:15.285Z,994.36
2017-05-03T04:39:15.310Z,994.38
2017-05-03T04:40:15.334Z,994.36
2017-05-03T04:41:15.363Z,994.39
2017-05-03T04:42:15.387Z,994.38
2017-05-03T04:43:15.417Z,994.37
2017-05-03T04:44:15.442Z,994.39
2017-05-03T04:45:15.466Z,994.43
2017-05-03T04:46:15.494Z,994.35
2017-05-03T04:47:15.521Z,994.41
2017-05-03T04:48:15.549Z,994.41
2017-05-03T04:49:15.574Z,994.39
2017-05-03T04:50:15.603Z,994.37
2017-05-03T04:51:15.628Z,994.4
2017-05-03T04:52:15.656Z,994.41
2017-05-03T04:53:15.681Z,994.42
2017-05-03T04:54:15.705Z,994.46
2017-05-03T04:55:15.985Z,994.44
2017-05-03T04:56:15.760Z,994.43
2017-05-03T04:57:15.788Z,994.46
2017-05-03T04:58:15.811Z,994.46
2017-05-03T04:59:15.841Z,994.43
2017-05-03T05:00:16.116Z,994.46
2017-05-03T05:01:15.895Z,994.45
2017-05-03T05:02:15.919Z,994.42
2017-05-03T05:03:15.946Z,994.42
2017-05-03T05:04:15.973Z,994.41
2017-05-03T05:05:16.249Z,994.41
2017-05-03T05:06:16.022Z,994.41
2017-05-03T05:07:16.046Z,994.4
2017-05-03T05:08:16.079Z,994.42
2017-05-03T05:09:16.100Z,994.44
2017-05-03T05:10:16.383Z,994.46
2017-05-03T05:11:16.158Z,994.43
2017-05-03T05:12:16.184Z,994.45
2017-05-03T05:13:16.211Z,994.49
2017-05-03T05:14:16.235Z,994.47
2017-05-03T05:15:16.517Z,994.48
2017-05-03T05:16:16.289Z,994.49
2017-05-03T05:17:16.314Z,994.51
2017-05-03T05:18:16.342Z,994.54
2017-05-03T05:19:16.367Z,994.48
2017-05-03T05:20:16.648Z,994.5
2017-05-03T05:21:16.421Z,994.51
2017-05-03T05:22:16.451Z,994.54
2017-05-03T05:23:16.474Z,994.55
2017-05-03T05:24:16.505Z,994.58
2017-05-03T05:25:16.528Z,994.56
2017-05-03T05:26:16.557Z,994.61
2017-05-03T05:27:16.581Z,994.62
2017-05-03T05:28:16.610Z,994.63
2017-05-03T05:29:16.683Z,994.65
2017-05-03T05:30:16.660Z,994.68
2017-05-03T05:31:16.688Z,994.64
2017-05-03T05:32:16.713Z,994.68
2017-05-03T05:33:16.743Z,994.69
2017-05-03T05:34:16.771Z,994.68
2017-05-03T05:35:16.796Z,994.7
2017-05-03T05:36:16.820Z,994.73
2017-05-03T05:37:16.849Z,994.65
2017-05-03T05:38:16.869Z,994.69
2017-05-03T05:39:16.898Z,994.71
2017-05-03T05:40:16.927Z,994.68
2017-05-03T05:41:16.952Z,994.71
2017-05-03T05:42:16.980Z,994.69
2017-05-03T05:43:17.003Z,994.69
2017-05-03T05:44:17.035Z,994.75
2017-05-03T05:45:17.076Z,994.74
2017-05-03T05:46:17.084Z,994.77
2017-05-03T05:47:17.113Z,994.77
2017-05-03T05:48:17.137Z,994.79
2017-05-03T05:49:17.167Z,994.79
2017-05-03T05:50:17.190Z,994.78
2017-05-03T05:51:17.216Z,994.79
2017-05-03T05:52:17.241Z,994.82
2017-05-03T05:53:17.273Z,994.83
2017-05-03T05:54:17.299Z,994.82
2017-05-03T05:55:17.324Z,994.79
2017-05-03T05:56:17.352Z,994.78
2017-05-03T05:57:17.379Z,994.8
2017-05-03T05:58:17.405Z,994.78
2017-05-03T05:59:17.429Z,994.82
2017-05-03T06:00:17.460Z,994.81
2017-05-03T06:01:17.482Z,994.83
2017-05-03T06:02:17.506Z,994.84
2017-05-03T06:03:17.539Z,994.8
2017-05-03T06:04:17.562Z,994.81
2017-05-03T06:05:17.590Z,994.84
2017-05-03T06:06:17.614Z,994.81
2017-05-03T06:07:17.643Z,994.79
2017-05-03T06:08:17.670Z,994.82
2017-05-03T06:09:17.698Z,994.82
2017-05-03T06:10:17.723Z,994.79
2017-05-03T06:11:17.746Z,994.79
2017-05-03T06:12:17.776Z,994.83
2017-05-03T06:13:17.803Z,994.8
2017-05-03T06:14:17.830Z,994.79
2017-05-03T06:15:17.851Z,994.77
2017-05-03T06:16:17.884Z,994.78
2017-05-03T06:17:17.908Z,994.75
2017-05-03T06:18:17.938Z,994.77
2017-05-03T06:19:17.964Z,994.75
2017-05-03T06:20:17.989Z,994.72
2017-05-03T06:21:18.017Z,994.77
2017-05-03T06:22:18.044Z,994.71
2017-05-03T06:23:18.068Z,994.71
2017-05-03T06:24:18.098Z,994.7
2017-05-03T06:25:18.122Z,994.72
2017-05-03T06:26:18.146Z,994.71
2017-05-03T06:27:18.175Z,994.7
2017-05-03T06:28:18.214Z,994.68
2017-05-03T06:29:18.225Z,994.68
2017-05-03T06:30:18.253Z,994.74
2017-05-03T06:31:18.283Z,994.67
2017-05-03T06:32:18.307Z,994.67
2017-05-03T06:33:18.336Z,994.71
2017-05-03T06:34:18.361Z,994.7
2017-05-03T06:35:18.386Z,994.7
2017-05-03T06:36:18.410Z,994.68
2017-05-03T06:37:18.442Z,994.71
2017-05-03T06:38:18.468Z,994.72
2017-05-03T06:39:18.496Z,994.72
2017-05-03T06:40:18.519Z,994.73
2017-05-03T06:41:18.547Z,994.74
2017-05-03T06:42:18.575Z,994.71
2017-05-03T06:43:18.599Z,994.71
2017-05-03T06:44:18.629Z,994.74
2017-05-03T06:45:18.654Z,994.7
2017-05-03T06:46:18.934Z,994.7
2017-05-03T06:47:18.707Z,994.72
2017-05-03T06:48:18.731Z,994.71
2017-05-03T06:49:18.795Z,994.71
2017-05-03T06:50:18.788Z,994.72
2017-05-03T06:51:19.066Z,994.67
2017-05-03T06:52:18.844Z,994.71
2017-05-03T06:53:18.868Z,994.72
2017-05-03T06:54:18.893Z,994.7
2017-05-03T06:55:18.920Z,994.74
2017-05-03T06:56:19.203Z,994.69
2017-05-03T06:57:18.970Z,994.67
2017-05-03T06:58:18.999Z,994.69
2017-05-03T06:59:19.031Z,994.67
2017-05-03T07:00:19.057Z,994.71
2017-05-03T07:01:19.334Z,994.7
2017-05-03T07:02:19.106Z,994.7
2017-05-03T07:03:19.136Z,994.74
2017-05-03T07:04:19.159Z,994.73
2017-05-03T07:05:19.188Z,994.74
2017-05-03T07:06:19.465Z,994.72
2017-05-03T07:07:19.242Z,994.73
2017-05-03T07:08:19.266Z,994.73
2017-05-03T07:09:19.296Z,994.73
2017-05-03T07:10:19.321Z,994.73
2017-05-03T07:11:19.601Z,994.77
2017-05-03T07:12:19.370Z,994.79
2017-05-03T07:13:19.403Z,994.8
2017-05-03T07:14:19.428Z,994.79
2017-05-03T07:15:19.456Z,994.79
2017-05-03T07:16:19.481Z,994.82
2017-05-03T07:17:19.510Z,994.8
2017-05-03T07:18:19.534Z,994.84
2017-05-03T07:19:19.564Z,994.83
2017-05-03T07:20:19.588Z,994.85
2017-05-03T07:21:19.616Z,994.87
2017-05-03T07:22:19.639Z,994.85
2017-05-03T07:23:19.666Z,994.87
2017-05-03T07:24:19.695Z,994.84
2017-05-03T07:25:19.719Z,994.9
2017-05-03T07:26:19.750Z,994.92
2017-05-03T07:27:19.778Z,994.89
2017-05-03T07:28:19.802Z,994.91
2017-05-03T07:29:19.831Z,994.93
2017-05-03T07:30:19.859Z,994.93
2017-05-03T07:31:19.884Z,994.93
2017-05-03T07:32:19.909Z,994.91
2017-05-03T07:33:19.943Z,994.97
2017-05-03T07:34:19.968Z,994.93
2017-05-03T07:35:19.991Z,994.94
2017-05-03T07:36:20.016Z,994.97
2017-05-03T07:37:20.046Z,994.93
2017-05-03T07:38:20.069Z,994.92
2017-05-03T07:39:20.103Z,994.94
2017-05-03T07:40:20.127Z,994.91
2017-05-03T07:41:20.152Z,994.94
2017-05-03T07:42:20.174Z,994.95
2017-05-03T07:43:20.206Z,994.94
2017-05-03T07:44:20.230Z,994.94
2017-05-03T07:45:20.260Z,994.94
2017-05-03T07:46:20.287Z,994.94
2017-05-03T07:47:20.312Z,994.91
2017-05-03T07:48:20.343Z,994.91
2017-05-03T07:49:20.362Z,994.94
2017-05-03T07:50:20.398Z,994.96
2017-05-03T07:51:20.420Z,994.96
2017-05-03T07:52:20.448Z,995.01
2017-05-03T07:53:20.474Z,995.03
2017-05-03T07:54:20.503Z,995
2017-05-03T07:55:20.528Z,995.01
2017-05-03T07:56:20.557Z,995.05
2017-05-03T07:57:20.582Z,995.01
2017-05-03T07:58:20.608Z,995.01
2017-05-03T07:59:20.638Z,995.05
2017-05-03T08:00:20.663Z,995.09
2017-05-03T08:01:20.691Z,995.11
2017-05-03T08:02:20.716Z,995.15
2017-05-03T08:03:20.745Z,995.1
2017-05-03T08:04:20.770Z,995.1
2017-05-03T08:05:20.798Z,995.13
2017-05-03T08:06:20.824Z,995.12
2017-05-03T08:07:20.852Z,995.11
2017-05-03T08:08:20.881Z,995.11
2017-05-03T08:09:20.901Z,995.16
2017-05-03T08:10:20.935Z,995.1
2017-05-03T08:11:20.960Z,995.11
2017-05-03T08:12:20.988Z,995.11
2017-05-03T08:13:21.013Z,995.13
2017-05-03T08:14:21.041Z,995.14
2017-05-03T08:15:21.066Z,995.15
2017-05-03T08:16:21.096Z,995.13
2017-05-03T08:17:21.124Z,995.13
2017-05-03T08:18:21.148Z,995.14
2017-05-03T08:19:21.178Z,995.11
2017-05-03T08:20:21.206Z,995.12
2017-05-03T08:21:21.232Z,995.13
2017-05-03T08:22:21.255Z,995.16
2017-05-03T08:23:21.284Z,995.15
2017-05-03T08:24:21.313Z,995.21
2017-05-03T08:25:21.343Z,995.17
2017-05-03T08:26:21.365Z,995.18
2017-05-03T08:27:21.396Z,995.22
2017-05-03T08:28:21.421Z,995.17
2017-05-03T08:29:21.448Z,995.18
2017-05-03T08:30:21.477Z,995.21
2017-05-03T08:31:21.503Z,995.22
2017-05-03T08:32:21.532Z,995.17
2017-05-03T08:33:21.557Z,995.22
2017-05-03T08:34:21.585Z,995.23
2017-05-03T08:35:21.615Z,995.23
2017-05-03T08:36:21.643Z,995.21
2017-05-03T08:37:21.671Z,995.23
2017-05-03T08:38:21.692Z,995.26
2017-05-03T08:39:21.722Z,995.24
2017-05-03T08:40:21.749Z,995.25
2017-05-03T08:41:21.775Z,995.26
2017-05-03T08:42:21.799Z,995.22
2017-05-03T08:43:21.832Z,995.21
2017-05-03T08:44:21.858Z,995.18
2017-05-03T08:45:21.881Z,995.2
2017-05-03T08:46:21.915Z,995.2
2017-05-03T08:47:22.239Z,995.23
2017-05-03T08:48:21.972Z,995.17
2017-05-03T08:49:21.993Z,995.18
2017-05-03T08:50:22.022Z,995.16
2017-05-03T08:51:22.051Z,995.18
2017-05-03T08:52:22.330Z,995.17
2017-05-03T08:53:22.103Z,995.19
2017-05-03T08:54:22.129Z,995.19
2017-05-03T08:55:22.156Z,995.12
2017-05-03T08:56:22.181Z,995.18
2017-05-03T08:57:22.462Z,995.17
2017-05-03T08:58:22.235Z,995.17
2017-05-03T08:59:22.269Z,995.13
2017-05-03T09:00:22.298Z,995.14
2017-05-03T09:01:22.318Z,995.15
2017-05-03T09:02:22.599Z,995.1
2017-05-03T09:03:22.375Z,995.11
2017-05-03T09:04:22.404Z,995.11
2017-05-03T09:05:22.434Z,995.09
2017-05-03T09:06:22.459Z,995.11
2017-05-03T09:07:22.738Z,995.13
2017-05-03T09:08:22.512Z,995.11
2017-05-03T09:09:22.545Z,995.11
2017-05-03T09:10:22.572Z,995.09
2017-05-03T09:11:22.598Z,995.08
2017-05-03T09:12:22.626Z,995.12
2017-05-03T09:13:22.652Z,995.12
2017-05-03T09:14:22.680Z,995.13
2017-05-03T09:15:22.710Z,995.1
2017-05-03T09:16:22.734Z,995.09
2017-05-03T09:17:22.763Z,995.09
2017-05-03T09:18:22.791Z,995.09
2017-05-03T09:19:22.816Z,995.1
2017-05-03T09:20:22.845Z,995.1
2017-05-03T09:21:22.872Z,995.09
2017-05-03T09:22:22.898Z,995.07
2017-05-03T09:23:22.927Z,995.1
2017-05-03T09:24:22.956Z,995.06
2017-05-03T09:25:22.984Z,995.07
2017-05-03T09:26:23.006Z,995.05
2017-05-03T09:27:23.037Z,995.08
2017-05-03T09:28:23.062Z,995.05
2017-05-03T09:29:23.090Z,995.05
2017-05-03T09:30:23.119Z,995.05
2017-05-03T09:31:23.149Z,995.02
2017-05-03T09:32:23.178Z,995.03
2017-05-03T09:33:23.203Z,994.99
2017-05-03T09:34:23.235Z,995.01
2017-05-03T09:35:23.255Z,995.04
2017-05-03T09:36:23.286Z,995.05
2017-05-03T09:37:23.314Z,995.07
2017-05-03T09:38:23.342Z,995.06
2017-05-03T09:39:23.366Z,995.04
2017-05-03T09:40:23.394Z,995.04
2017-05-03T09:41:23.425Z,995.05
2017-05-03T09:42:23.454Z,995.05
2017-05-03T09:43:23.478Z,995.05
2017-05-03T09:44:23.507Z,995.05
2017-05-03T09:45:23.536Z,994.99
2017-05-03T09:46:23.556Z,995.02
2017-05-03T09:47:23.590Z,995.04
2017-05-03T09:48:23.617Z,995.08
2017-05-03T09:49:23.647Z,995.06
2017-05-03T09:50:23.670Z,995.04
2017-05-03T09:51:23.696Z,995.03
2017-05-03T09:52:23.729Z,995.06
2017-05-03T09:53:23.754Z,995.07
2017-05-03T09:54:23.783Z,995.02
2017-05-03T09:55:23.810Z,995.05
2017-05-03T09:56:23.841Z,995.04
2017-05-03T09:57:23.866Z,995.02
2017-05-03T09:58:23.893Z,995.03
2017-05-03T09:59:23.922Z,995.03
2017-05-03T10:00:23.951Z,995.01
2017-05-03T10:01:23.975Z,995.02
2017-05-03T10:02:24.005Z,994.99
2017-05-03T10:03:24.035Z,995.04
2017-05-03T10:04:24.063Z,994.99
2017-05-03T10:05:24.090Z,995.03
2017-05-03T10:06:24.115Z,995.05
2017-05-03T10:07:24.144Z,995.04
2017-05-03T10:08:24.173Z,995.02
2017-05-03T10:09:24.198Z,995.07
2017-05-03T10:10:24.228Z,995.02
2017-05-03T10:11:24.255Z,995.04
2017-05-03T10:12:24.284Z,995.08
2017-05-03T10:13:24.314Z,995.06
2017-05-03T10:14:24.339Z,995.08
2017-05-03T10:15:24.367Z,995.06
2017-05-03T10:16:24.391Z,995.04
2017-05-03T10:17:24.425Z,995.05
2017-05-03T10:18:24.450Z,995.02
2017-05-03T10:19:24.479Z,995.07
2017-05-03T10:20:24.508Z,995.06
2017-05-03T10:21:24.532Z,995.1
2017-05-03T10:22:24.561Z,995.05
2017-05-03T10:23:24.589Z,995.08
2017-05-03T10:24:24.617Z,995.06
2017-05-03T10:25:24.646Z,995.07
2017-05-03T10:26:24.667Z,995.06
2017-05-03T10:27:24.700Z,995.05
2017-05-03T10:28:24.729Z,995.03
2017-05-03T10:29:24.759Z,995.03
2017-05-03T10:30:24.782Z,995.03
2017-05-03T10:31:24.807Z,995.06
2017-05-03T10:32:24.841Z,995.03
2017-05-03T10:33:24.868Z,995.04
2017-05-03T10:34:24.893Z,995.06
2017-05-03T10:35:24.922Z,995
2017-05-03T10:36:24.951Z,995.02
2017-05-03T10:37:24.980Z,994.98
2017-05-03T10:38:25.008Z,994.92
2017-05-03T10:39:25.032Z,995.01
2017-05-03T10:40:25.061Z,994.96
2017-05-03T10:41:25.091Z,994.96
2017-05-03T10:42:25.120Z,994.92
2017-05-03T10:43:25.400Z,994.91
2017-05-03T10:44:25.177Z,994.95
2017-05-03T10:45:25.202Z,994.94
2017-05-03T10:46:25.230Z,994.92
2017-05-03T10:47:25.260Z,994.87
2017-05-03T10:48:25.541Z,994.89
2017-05-03T10:49:25.314Z,994.94
2017-05-03T10:50:25.342Z,994.92
2017-05-03T10:51:25.372Z,994.91
2017-05-03T10:52:25.399Z,994.89
2017-05-03T10:53:25.676Z,994.89
2017-05-03T10:54:25.457Z,994.9
2017-05-03T10:55:25.482Z,994.95
2017-05-03T10:56:25.510Z,994.96
2017-05-03T10:57:25.540Z,994.88
2017-05-03T10:58:25.568Z,994.84
2017-05-03T10:59:25.592Z,994.86
2017-05-03T11:00:25.617Z,994.84
2017-05-03T11:01:25.649Z,994.9
2017-05-03T11:02:25.678Z,994.89
2017-05-03T11:03:25.708Z,994.86
2017-05-03T11:04:25.736Z,994.94
2017-05-03T11:05:25.761Z,994.93
2017-05-03T11:06:25.794Z,994.85
2017-05-03T11:07:25.819Z,994.91
2017-05-03T11:08:25.843Z,994.92
2017-05-03T11:09:25.877Z,994.86
2017-05-03T11:10:25.902Z,994.86
2017-05-03T11:11:25.933Z,994.87
2017-05-03T11:12:25.957Z,994.88
2017-05-03T11:13:25.988Z,994.93
2017-05-03T11:14:26.017Z,994.89
2017-05-03T11:15:26.046Z,994.91
2017-05-03T11:16:26.074Z,994.96
2017-05-03T11:17:26.106Z,994.9
2017-05-03T11:18:26.131Z,994.94
2017-05-03T11:19:26.157Z,994.95
2017-05-03T11:20:26.185Z,994.91
2017-05-03T11:21:26.213Z,994.91
2017-05-03T11:22:26.244Z,994.99
2017-05-03T11:23:26.269Z,994.97
2017-05-03T11:24:26.296Z,994.99
2017-05-03T11:25:26.325Z,994.96
2017-05-03T11:26:26.353Z,994.99
2017-05-03T11:27:26.383Z,994.96
2017-05-03T11:28:26.403Z,994.97
2017-05-03T11:29:26.436Z,994.94
2017-05-03T11:30:26.469Z,994.92
2017-05-03T11:31:26.493Z,994.91
2017-05-03T11:32:26.519Z,994.9
2017-05-03T11:33:26.547Z,994.89
2017-05-03T11:34:26.576Z,994.86
2017-05-03T11:35:26.603Z,994.87
2017-05-03T11:36:26.634Z,994.86
2017-05-03T11:37:26.658Z,994.85
2017-05-03T11:38:26.686Z,994.87
2017-05-03T11:39:26.733Z,994.88
2017-05-03T11:40:26.744Z,994.88
2017-05-03T11:41:26.768Z,994.86
2017-05-03T11:42:26.798Z,994.87
2017-05-03T11:43:26.825Z,994.84
2017-05-03T11:44:26.856Z,994.82
2017-05-03T11:45:26.880Z,994.83
2017-05-03T11:46:26.909Z,994.83
2017-05-03T11:47:26.938Z,994.83
2017-05-03T11:48:26.966Z,994.84
2017-05-03T11:49:26.989Z,994.83
2017-05-03T11:50:27.020Z,994.82
2017-05-03T11:51:27.048Z,994.84
2017-05-03T11:52:27.072Z,994.82
2017-05-03T11:53:27.102Z,994.85
2017-05-03T11:54:27.131Z,994.84
2017-05-03T11:55:27.160Z,994.83
2017-05-03T11:56:27.185Z,994.85
2017-05-03T11:57:27.214Z,994.85
2017-05-03T11:58:27.242Z,994.84
2017-05-03T11:59:27.262Z,994.82
2017-05-03T12:00:27.295Z,994.84
2017-05-03T12:01:27.325Z,994.83
2017-05-03T12:02:27.349Z,994.81
2017-05-03T12:03:27.378Z,994.83
2017-05-03T12:04:27.406Z,994.82
2017-05-03T12:05:27.436Z,994.81
2017-05-03T12:06:27.460Z,994.81
2017-05-03T12:07:27.488Z,994.8
2017-05-03T12:08:27.517Z,994.74
2017-05-03T12:09:27.547Z,994.77
2017-05-03T12:10:27.572Z,994.81
2017-05-03T12:11:27.603Z,994.82
2017-05-03T12:12:27.626Z,994.82
2017-05-03T12:13:27.656Z,994.84
2017-05-03T12:14:27.683Z,994.91
2017-05-03T12:15:27.712Z,995
2017-05-03T12:16:27.736Z,994.9
2017-05-03T12:17:27.764Z,995.12
2017-05-03T12:18:27.797Z,995.2
2017-05-03T12:19:27.823Z,995.22
2017-05-03T12:20:27.851Z,995.2
2017-05-03T12:21:27.881Z,995.17
2017-05-03T12:22:27.910Z,995.09
2017-05-03T12:23:27.933Z,994.96
2017-05-03T12:24:27.962Z,994.97
2017-05-03T12:25:27.994Z,994.87
2017-05-03T12:26:28.024Z,994.8
2017-05-03T12:27:28.053Z,994.83
2017-05-03T12:28:28.079Z,994.7
2017-05-03T12:29:28.106Z,994.68
2017-05-03T12:30:28.139Z,994.66
2017-05-03T12:31:28.168Z,994.59